sensor_id;sensor_type;location;lat;lon;timestamp;P1;durP1;ratioP1;P2;durP2;ratioP2
49578;SDS011;35483;50.828;3.228;2023-04-28T00:02:16;26.92;;;19.77;;
49578;SDS011;35483;50.828;3.228;2023-04-28T00:04:42;26.63;;;18.77;;
49578;SDS011;35483;50.828;3.228;2023-04-28T00:07:08;24.80;;;19.05;;
49578;SDS011;35483;50.828;3.228;2023-04-28T00:09:33;29.50;;;19.42;;
49578;SDS011;35483;50.828;3.228;2023-04-28T00:11:59;27.00;;;20.42;;
49578;SDS011;35483;50.828;3.228;2023-04-28T00:14:25;29.17;;;20.88;;
49578;SDS011;35483;50.828;3.228;2023-04-28T00:16:51;29.45;;;19.73;;
49578;SDS011;35483;50.828;3.228;2023-04-28T00:19:17;24.25;;;18.35;;
49578;SDS011;35483;50.828;3.228;2023-04-28T00:21:42;25.00;;;19.58;;
49578;SDS011;35483;50.828;3.228;2023-04-28T00:24:08;25.92;;;18.95;;
49578;SDS011;35483;50.828;3.228;2023-04-28T00:26:34;24.85;;;19.30;;
49578;SDS011;35483;50.828;3.228;2023-04-28T00:29:00;28.05;;;20.13;;
49578;SDS011;35483;50.828;3.228;2023-04-28T00:31:25;27.20;;;19.35;;
49578;SDS011;35483;50.828;3.228;2023-04-28T00:33:51;26.77;;;19.80;;
49578;SDS011;35483;50.828;3.228;2023-04-28T00:36:17;27.60;;;19.48;;
49578;SDS011;35483;50.828;3.228;2023-04-28T00:38:42;27.05;;;19.05;;
49578;SDS011;35483;50.828;3.228;2023-04-28T00:41:08;31.08;;;21.02;;
49578;SDS011;35483;50.828;3.228;2023-04-28T00:43:45;26.08;;;19.05;;
49578;SDS011;35483;50.828;3.228;2023-04-28T00:46:18;28.42;;;20.25;;
49578;SDS011;35483;50.828;3.228;2023-04-28T00:48:51;26.48;;;20.45;;
49578;SDS011;35483;50.828;3.228;2023-04-28T00:51:17;28.83;;;19.83;;
49578;SDS011;35483;50.828;3.228;2023-04-28T00:53:43;30.17;;;20.75;;
49578;SDS011;35483;50.828;3.228;2023-04-28T00:56:09;32.03;;;21.90;;
49578;SDS011;35483;50.828;3.228;2023-04-28T00:58:35;29.13;;;19.90;;
49578;SDS011;35483;50.828;3.228;2023-04-28T01:01:05;29.27;;;21.33;;
49578;SDS011;35483;50.828;3.228;2023-04-28T01:03:35;28.45;;;21.40;;
49578;SDS011;35483;50.828;3.228;2023-04-28T01:06:04;30.25;;;20.77;;
49578;SDS011;35483;50.828;3.228;2023-04-28T01:08:30;31.85;;;23.58;;
49578;SDS011;35483;50.828;3.228;2023-04-28T01:10:57;28.23;;;20.90;;
49578;SDS011;35483;50.828;3.228;2023-04-28T01:13:23;29.52;;;21.85;;
49578;SDS011;35483;50.828;3.228;2023-04-28T01:15:50;33.65;;;22.33;;
49578;SDS011;35483;50.828;3.228;2023-04-28T01:18:16;26.27;;;19.42;;
49578;SDS011;35483;50.828;3.228;2023-04-28T01:20:42;31.63;;;22.73;;
49578;SDS011;35483;50.828;3.228;2023-04-28T01:23:12;30.20;;;21.60;;
49578;SDS011;35483;50.828;3.228;2023-04-28T01:25:40;30.17;;;20.77;;
49578;SDS011;35483;50.828;3.228;2023-04-28T01:28:07;30.40;;;21.00;;
49578;SDS011;35483;50.828;3.228;2023-04-28T01:30:33;29.55;;;19.42;;
49578;SDS011;35483;50.828;3.228;2023-04-28T01:33:00;29.73;;;20.65;;
49578;SDS011;35483;50.828;3.228;2023-04-28T01:35:26;29.40;;;21.05;;
49578;SDS011;35483;50.828;3.228;2023-04-28T01:37:52;29.60;;;20.58;;
49578;SDS011;35483;50.828;3.228;2023-04-28T01:40:17;26.60;;;19.88;;
49578;SDS011;35483;50.828;3.228;2023-04-28T01:42:43;27.80;;;19.88;;
49578;SDS011;35483;50.828;3.228;2023-04-28T01:45:09;27.25;;;20.35;;
49578;SDS011;35483;50.828;3.228;2023-04-28T01:47:35;26.33;;;20.00;;
49578;SDS011;35483;50.828;3.228;2023-04-28T01:50:01;26.83;;;19.33;;
49578;SDS011;35483;50.828;3.228;2023-04-28T01:52:27;26.42;;;18.83;;
49578;SDS011;35483;50.828;3.228;2023-04-28T01:54:53;26.38;;;19.38;;
49578;SDS011;35483;50.828;3.228;2023-04-28T01:57:19;29.38;;;20.27;;
49578;SDS011;35483;50.828;3.228;2023-04-28T01:59:47;26.60;;;19.75;;
49578;SDS011;35483;50.828;3.228;2023-04-28T02:02:12;26.80;;;19.25;;
49578;SDS011;35483;50.828;3.228;2023-04-28T02:04:38;25.95;;;19.45;;
49578;SDS011;35483;50.828;3.228;2023-04-28T02:07:05;26.65;;;18.42;;
49578;SDS011;35483;50.828;3.228;2023-04-28T02:09:31;24.45;;;17.80;;
49578;SDS011;35483;50.828;3.228;2023-04-28T02:11:58;28.25;;;19.48;;
49578;SDS011;35483;50.828;3.228;2023-04-28T02:14:24;24.30;;;17.25;;
49578;SDS011;35483;50.828;3.228;2023-04-28T02:16:50;25.90;;;17.90;;
49578;SDS011;35483;50.828;3.228;2023-04-28T02:19:15;24.42;;;17.77;;
49578;SDS011;35483;50.828;3.228;2023-04-28T02:21:41;25.55;;;17.90;;
49578;SDS011;35483;50.828;3.228;2023-04-28T02:24:07;24.48;;;17.80;;
49578;SDS011;35483;50.828;3.228;2023-04-28T02:26:33;23.27;;;17.63;;
49578;SDS011;35483;50.828;3.228;2023-04-28T02:28:59;23.30;;;17.83;;
49578;SDS011;35483;50.828;3.228;2023-04-28T02:31:25;24.17;;;18.10;;
49578;SDS011;35483;50.828;3.228;2023-04-28T02:33:51;23.65;;;17.95;;
49578;SDS011;35483;50.828;3.228;2023-04-28T02:36:17;22.60;;;17.15;;
49578;SDS011;35483;50.828;3.228;2023-04-28T02:38:43;24.05;;;17.27;;
49578;SDS011;35483;50.828;3.228;2023-04-28T02:41:10;22.80;;;16.48;;
49578;SDS011;35483;50.828;3.228;2023-04-28T02:43:35;20.52;;;15.82;;
49578;SDS011;35483;50.828;3.228;2023-04-28T02:46:02;21.30;;;15.98;;
49578;SDS011;35483;50.828;3.228;2023-04-28T02:48:29;23.30;;;15.05;;
49578;SDS011;35483;50.828;3.228;2023-04-28T02:50:55;19.33;;;14.57;;
49578;SDS011;35483;50.828;3.228;2023-04-28T02:53:21;20.20;;;14.27;;
49578;SDS011;35483;50.828;3.228;2023-04-28T02:55:47;20.00;;;13.90;;
49578;SDS011;35483;50.828;3.228;2023-04-28T02:58:13;18.50;;;13.32;;
49578;SDS011;35483;50.828;3.228;2023-04-28T03:00:40;17.90;;;13.27;;
49578;SDS011;35483;50.828;3.228;2023-04-28T03:03:06;18.88;;;12.80;;
49578;SDS011;35483;50.828;3.228;2023-04-28T03:05:32;17.20;;;12.40;;
49578;SDS011;35483;50.828;3.228;2023-04-28T03:07:57;13.98;;;10.20;;
49578;SDS011;35483;50.828;3.228;2023-04-28T03:10:24;13.93;;;10.45;;
49578;SDS011;35483;50.828;3.228;2023-04-28T03:12:50;15.95;;;10.32;;
49578;SDS011;35483;50.828;3.228;2023-04-28T03:15:15;13.05;;;10.10;;
49578;SDS011;35483;50.828;3.228;2023-04-28T03:17:42;12.93;;;9.32;;
49578;SDS011;35483;50.828;3.228;2023-04-28T03:20:08;13.02;;;9.70;;
49578;SDS011;35483;50.828;3.228;2023-04-28T03:22:34;10.70;;;8.85;;
49578;SDS011;35483;50.828;3.228;2023-04-28T03:25:00;12.25;;;9.43;;
49578;SDS011;35483;50.828;3.228;2023-04-28T03:27:27;12.73;;;8.52;;
49578;SDS011;35483;50.828;3.228;2023-04-28T03:29:53;11.80;;;8.80;;
49578;SDS011;35483;50.828;3.228;2023-04-28T03:32:19;11.43;;;8.43;;
49578;SDS011;35483;50.828;3.228;2023-04-28T03:34:45;10.10;;;7.65;;
49578;SDS011;35483;50.828;3.228;2023-04-28T03:37:10;11.40;;;8.93;;
49578;SDS011;35483;50.828;3.228;2023-04-28T03:39:36;10.40;;;7.97;;
49578;SDS011;35483;50.828;3.228;2023-04-28T03:42:02;9.15;;;7.43;;
49578;SDS011;35483;50.828;3.228;2023-04-28T03:44:28;9.27;;;6.65;;
49578;SDS011;35483;50.828;3.228;2023-04-28T03:46:53;7.70;;;6.00;;
49578;SDS011;35483;50.828;3.228;2023-04-28T03:49:20;6.82;;;5.60;;
49578;SDS011;35483;50.828;3.228;2023-04-28T03:51:47;7.13;;;5.85;;
49578;SDS011;35483;50.828;3.228;2023-04-28T03:54:15;8.40;;;6.10;;
49578;SDS011;35483;50.828;3.228;2023-04-28T03:56:41;6.43;;;5.30;;
49578;SDS011;35483;50.828;3.228;2023-04-28T03:59:07;6.95;;;5.55;;
49578;SDS011;35483;50.828;3.228;2023-04-28T04:01:35;7.15;;;5.47;;
49578;SDS011;35483;50.828;3.228;2023-04-28T04:04:01;7.45;;;5.53;;
49578;SDS011;35483;50.828;3.228;2023-04-28T04:06:28;6.07;;;4.80;;
49578;SDS011;35483;50.828;3.228;2023-04-28T04:08:53;7.15;;;5.22;;
49578;SDS011;35483;50.828;3.228;2023-04-28T04:11:19;7.13;;;5.32;;
49578;SDS011;35483;50.828;3.228;2023-04-28T04:13:45;7.15;;;5.78;;
49578;SDS011;35483;50.828;3.228;2023-04-28T04:16:12;7.57;;;5.63;;
49578;SDS011;35483;50.828;3.228;2023-04-28T04:18:40;8.48;;;5.60;;
49578;SDS011;35483;50.828;3.228;2023-04-28T04:21:05;7.13;;;5.13;;
49578;SDS011;35483;50.828;3.228;2023-04-28T04:23:31;8.18;;;6.13;;
49578;SDS011;35483;50.828;3.228;2023-04-28T04:25:57;6.18;;;4.90;;
49578;SDS011;35483;50.828;3.228;2023-04-28T04:28:23;7.13;;;5.40;;
49578;SDS011;35483;50.828;3.228;2023-04-28T04:30:48;6.78;;;5.00;;
49578;SDS011;35483;50.828;3.228;2023-04-28T04:33:14;6.53;;;4.35;;
49578;SDS011;35483;50.828;3.228;2023-04-28T04:35:40;6.28;;;4.43;;
49578;SDS011;35483;50.828;3.228;2023-04-28T04:38:06;5.97;;;5.10;;
49578;SDS011;35483;50.828;3.228;2023-04-28T04:40:31;5.85;;;4.97;;
49578;SDS011;35483;50.828;3.228;2023-04-28T04:42:57;4.80;;;4.30;;
49578;SDS011;35483;50.828;3.228;2023-04-28T04:45:23;6.75;;;4.63;;
49578;SDS011;35483;50.828;3.228;2023-04-28T04:47:49;5.43;;;4.20;;
49578;SDS011;35483;50.828;3.228;2023-04-28T04:50:16;4.80;;;3.83;;
49578;SDS011;35483;50.828;3.228;2023-04-28T04:52:41;4.90;;;4.28;;
49578;SDS011;35483;50.828;3.228;2023-04-28T04:55:07;3.85;;;3.47;;
49578;SDS011;35483;50.828;3.228;2023-04-28T04:57:35;4.03;;;3.60;;
49578;SDS011;35483;50.828;3.228;2023-04-28T05:00:01;5.13;;;4.30;;
49578;SDS011;35483;50.828;3.228;2023-04-28T05:02:28;4.45;;;3.72;;
49578;SDS011;35483;50.828;3.228;2023-04-28T05:04:54;4.47;;;3.40;;
49578;SDS011;35483;50.828;3.228;2023-04-28T05:07:20;3.42;;;3.10;;
49578;SDS011;35483;50.828;3.228;2023-04-28T05:09:45;4.20;;;3.50;;
49578;SDS011;35483;50.828;3.228;2023-04-28T05:12:11;4.93;;;3.50;;
49578;SDS011;35483;50.828;3.228;2023-04-28T05:14:37;4.07;;;3.45;;
49578;SDS011;35483;50.828;3.228;2023-04-28T05:17:02;4.18;;;3.35;;
49578;SDS011;35483;50.828;3.228;2023-04-28T05:19:28;4.28;;;3.75;;
49578;SDS011;35483;50.828;3.228;2023-04-28T05:21:54;4.22;;;3.83;;
49578;SDS011;35483;50.828;3.228;2023-04-28T05:24:20;4.18;;;3.78;;
49578;SDS011;35483;50.828;3.228;2023-04-28T05:26:50;6.05;;;5.10;;
49578;SDS011;35483;50.828;3.228;2023-04-28T05:29:16;5.43;;;4.55;;
49578;SDS011;35483;50.828;3.228;2023-04-28T05:31:42;5.65;;;4.43;;
49578;SDS011;35483;50.828;3.228;2023-04-28T05:34:07;6.07;;;4.53;;
49578;SDS011;35483;50.828;3.228;2023-04-28T05:36:33;5.05;;;4.15;;
49578;SDS011;35483;50.828;3.228;2023-04-28T05:38:59;4.35;;;3.92;;
49578;SDS011;35483;50.828;3.228;2023-04-28T05:41:25;5.20;;;4.70;;
49578;SDS011;35483;50.828;3.228;2023-04-28T05:43:51;5.75;;;4.38;;
49578;SDS011;35483;50.828;3.228;2023-04-28T05:46:17;4.10;;;3.78;;
49578;SDS011;35483;50.828;3.228;2023-04-28T05:48:43;3.55;;;3.25;;
49578;SDS011;35483;50.828;3.228;2023-04-28T05:51:09;5.72;;;3.78;;
49578;SDS011;35483;50.828;3.228;2023-04-28T05:53:35;4.25;;;3.67;;
49578;SDS011;35483;50.828;3.228;2023-04-28T05:56:01;3.92;;;3.45;;
49578;SDS011;35483;50.828;3.228;2023-04-28T05:58:27;3.92;;;3.60;;
49578;SDS011;35483;50.828;3.228;2023-04-28T06:00:53;4.05;;;3.65;;
49578;SDS011;35483;50.828;3.228;2023-04-28T06:03:19;6.05;;;3.85;;
49578;SDS011;35483;50.828;3.228;2023-04-28T06:05:45;5.65;;;4.07;;
49578;SDS011;35483;50.828;3.228;2023-04-28T06:08:11;5.57;;;5.03;;
49578;SDS011;35483;50.828;3.228;2023-04-28T06:10:36;6.47;;;4.32;;
49578;SDS011;35483;50.828;3.228;2023-04-28T06:13:02;4.78;;;3.92;;
49578;SDS011;35483;50.828;3.228;2023-04-28T06:15:30;3.97;;;3.58;;
49578;SDS011;35483;50.828;3.228;2023-04-28T06:17:56;3.90;;;3.35;;
49578;SDS011;35483;50.828;3.228;2023-04-28T06:20:23;3.30;;;2.85;;
49578;SDS011;35483;50.828;3.228;2023-04-28T06:22:49;3.95;;;2.72;;
49578;SDS011;35483;50.828;3.228;2023-04-28T06:25:15;3.78;;;3.13;;
49578;SDS011;35483;50.828;3.228;2023-04-28T06:27:41;2.67;;;2.45;;
49578;SDS011;35483;50.828;3.228;2023-04-28T06:30:06;3.20;;;2.88;;
49578;SDS011;35483;50.828;3.228;2023-04-28T06:32:33;3.22;;;2.60;;
49578;SDS011;35483;50.828;3.228;2023-04-28T06:34:58;5.15;;;2.70;;
49578;SDS011;35483;50.828;3.228;2023-04-28T06:37:24;2.22;;;2.03;;
49578;SDS011;35483;50.828;3.228;2023-04-28T06:39:50;2.97;;;2.25;;
49578;SDS011;35483;50.828;3.228;2023-04-28T06:42:16;3.63;;;2.25;;
49578;SDS011;35483;50.828;3.228;2023-04-28T06:44:43;2.30;;;2.10;;
49578;SDS011;35483;50.828;3.228;2023-04-28T06:47:09;2.42;;;2.03;;
49578;SDS011;35483;50.828;3.228;2023-04-28T06:49:35;2.60;;;2.00;;
49578;SDS011;35483;50.828;3.228;2023-04-28T06:52:01;1.95;;;1.77;;
49578;SDS011;35483;50.828;3.228;2023-04-28T06:54:28;2.33;;;2.13;;
49578;SDS011;35483;50.828;3.228;2023-04-28T06:56:53;2.67;;;2.47;;
49578;SDS011;35483;50.828;3.228;2023-04-28T06:59:19;2.60;;;2.40;;
49578;SDS011;35483;50.828;3.228;2023-04-28T07:01:45;2.17;;;2.00;;
49578;SDS011;35483;50.828;3.228;2023-04-28T07:04:10;2.42;;;2.20;;
49578;SDS011;35483;50.828;3.228;2023-04-28T07:06:36;2.13;;;2.03;;
49578;SDS011;35483;50.828;3.228;2023-04-28T07:09:02;2.55;;;2.08;;
49578;SDS011;35483;50.828;3.228;2023-04-28T07:11:28;1.90;;;1.80;;
49578;SDS011;35483;50.828;3.228;2023-04-28T07:13:54;1.88;;;1.73;;
49578;SDS011;35483;50.828;3.228;2023-04-28T07:16:19;1.73;;;1.63;;
49578;SDS011;35483;50.828;3.228;2023-04-28T07:18:46;1.83;;;1.65;;
49578;SDS011;35483;50.828;3.228;2023-04-28T07:21:11;1.52;;;1.42;;
49578;SDS011;35483;50.828;3.228;2023-04-28T07:23:37;1.65;;;1.50;;
49578;SDS011;35483;50.828;3.228;2023-04-28T07:26:04;2.03;;;1.80;;
49578;SDS011;35483;50.828;3.228;2023-04-28T07:28:30;2.30;;;1.88;;
49578;SDS011;35483;50.828;3.228;2023-04-28T07:30:56;2.10;;;1.70;;
49578;SDS011;35483;50.828;3.228;2023-04-28T07:33:22;2.22;;;1.65;;
49578;SDS011;35483;50.828;3.228;2023-04-28T07:35:48;1.90;;;1.80;;
49578;SDS011;35483;50.828;3.228;2023-04-28T07:38:14;2.10;;;1.90;;
49578;SDS011;35483;50.828;3.228;2023-04-28T07:40:41;1.55;;;1.45;;
49578;SDS011;35483;50.828;3.228;2023-04-28T07:43:07;1.73;;;1.63;;
49578;SDS011;35483;50.828;3.228;2023-04-28T07:45:35;2.03;;;1.83;;
49578;SDS011;35483;50.828;3.228;2023-04-28T07:48:04;3.33;;;2.30;;
49578;SDS011;35483;50.828;3.228;2023-04-28T07:50:30;3.90;;;3.50;;
49578;SDS011;35483;50.828;3.228;2023-04-28T07:52:57;2.78;;;2.30;;
49578;SDS011;35483;50.828;3.228;2023-04-28T07:55:23;3.22;;;2.92;;
49578;SDS011;35483;50.828;3.228;2023-04-28T07:57:49;2.83;;;2.35;;
49578;SDS011;35483;50.828;3.228;2023-04-28T08:00:15;2.88;;;2.40;;
49578;SDS011;35483;50.828;3.228;2023-04-28T08:02:41;2.35;;;1.75;;
49578;SDS011;35483;50.828;3.228;2023-04-28T08:05:07;2.72;;;2.35;;
49578;SDS011;35483;50.828;3.228;2023-04-28T08:07:33;3.00;;;2.63;;
49578;SDS011;35483;50.828;3.228;2023-04-28T08:09:59;2.78;;;2.58;;
49578;SDS011;35483;50.828;3.228;2023-04-28T08:12:25;2.65;;;2.45;;
49578;SDS011;35483;50.828;3.228;2023-04-28T08:14:51;2.58;;;2.15;;
49578;SDS011;35483;50.828;3.228;2023-04-28T08:17:17;2.78;;;2.40;;
49578;SDS011;35483;50.828;3.228;2023-04-28T08:19:42;2.10;;;1.90;;
49578;SDS011;35483;50.828;3.228;2023-04-28T08:22:10;1.85;;;1.58;;
49578;SDS011;35483;50.828;3.228;2023-04-28T08:24:36;1.33;;;1.23;;
49578;SDS011;35483;50.828;3.228;2023-04-28T08:27:02;1.70;;;1.38;;
49578;SDS011;35483;50.828;3.228;2023-04-28T08:29:28;1.00;;;1.00;;
49578;SDS011;35483;50.828;3.228;2023-04-28T08:31:55;0.90;;;0.90;;
49578;SDS011;35483;50.828;3.228;2023-04-28T08:34:20;1.55;;;1.20;;
49578;SDS011;35483;50.828;3.228;2023-04-28T08:36:46;1.10;;;1.00;;
49578;SDS011;35483;50.828;3.228;2023-04-28T08:39:12;1.27;;;1.13;;
49578;SDS011;35483;50.828;3.228;2023-04-28T08:41:37;1.35;;;1.25;;
49578;SDS011;35483;50.828;3.228;2023-04-28T08:44:09;1.25;;;1.02;;
49578;SDS011;35483;50.828;3.228;2023-04-28T08:46:36;1.48;;;1.30;;
49578;SDS011;35483;50.828;3.228;2023-04-28T08:49:06;1.20;;;1.10;;
49578;SDS011;35483;50.828;3.228;2023-04-28T08:51:44;1.10;;;1.05;;
49578;SDS011;35483;50.828;3.228;2023-04-28T08:54:12;0.80;;;0.80;;
49578;SDS011;35483;50.828;3.228;2023-04-28T08:56:40;1.38;;;1.25;;
49578;SDS011;35483;50.828;3.228;2023-04-28T08:59:09;1.30;;;1.15;;
49578;SDS011;35483;50.828;3.228;2023-04-28T09:01:36;1.50;;;1.38;;
49578;SDS011;35483;50.828;3.228;2023-04-28T09:04:03;3.42;;;1.48;;
49578;SDS011;35483;50.828;3.228;2023-04-28T09:06:35;2.40;;;1.30;;
49578;SDS011;35483;50.828;3.228;2023-04-28T09:09:18;1.20;;;1.10;;
49578;SDS011;35483;50.828;3.228;2023-04-28T09:14:17;1.80;;;1.48;;
49578;SDS011;35483;50.828;3.228;2023-04-28T09:16:42;1.70;;;1.42;;
49578;SDS011;35483;50.828;3.228;2023-04-28T09:19:08;1.48;;;1.30;;
49578;SDS011;35483;50.828;3.228;2023-04-28T09:21:45;1.23;;;1.13;;
49578;SDS011;35483;50.828;3.228;2023-04-28T09:24:24;1.42;;;1.13;;
49578;SDS011;35483;50.828;3.228;2023-04-28T09:26:57;1.65;;;1.25;;
49578;SDS011;35483;50.828;3.228;2023-04-28T09:29:27;2.40;;;1.65;;
49578;SDS011;35483;50.828;3.228;2023-04-28T09:31:59;2.25;;;1.63;;
49578;SDS011;35483;50.828;3.228;2023-04-28T09:34:44;1.10;;;1.00;;
49578;SDS011;35483;50.828;3.228;2023-04-28T09:39:44;1.35;;;1.00;;
49578;SDS011;35483;50.828;3.228;2023-04-28T09:45:00;1.17;;;1.08;;
49578;SDS011;35483;50.828;3.228;2023-04-28T09:47:28;0.70;;;0.70;;
49578;SDS011;35483;50.828;3.228;2023-04-28T09:49:57;0.68;;;0.60;;
49578;SDS011;35483;50.828;3.228;2023-04-28T09:52:24;0.95;;;0.50;;
49578;SDS011;35483;50.828;3.228;2023-04-28T09:54:51;0.50;;;0.50;;
49578;SDS011;35483;50.828;3.228;2023-04-28T09:57:18;0.45;;;0.40;;
49578;SDS011;35483;50.828;3.228;2023-04-28T09:59:48;1.00;;;0.40;;
49578;SDS011;35483;50.828;3.228;2023-04-28T10:02:16;0.65;;;0.50;;
49578;SDS011;35483;50.828;3.228;2023-04-28T10:04:49;1.13;;;0.50;;
49578;SDS011;35483;50.828;3.228;2023-04-28T10:07:18;0.30;;;0.30;;
49578;SDS011;35483;50.828;3.228;2023-04-28T10:09:45;0.70;;;0.68;;
49578;SDS011;35483;50.828;3.228;2023-04-28T10:12:14;0.70;;;0.70;;
49578;SDS011;35483;50.828;3.228;2023-04-28T10:14:43;0.43;;;0.43;;
49578;SDS011;35483;50.828;3.228;2023-04-28T10:17:10;0.50;;;0.50;;
49578;SDS011;35483;50.828;3.228;2023-04-28T10:19:40;0.75;;;0.60;;
49578;SDS011;35483;50.828;3.228;2023-04-28T10:27:41;0.73;;;0.60;;
49578;SDS011;35483;50.828;3.228;2023-04-28T10:30:18;0.82;;;0.70;;
49578;SDS011;35483;50.828;3.228;2023-04-28T10:32:45;1.20;;;0.65;;
49578;SDS011;35483;50.828;3.228;2023-04-28T10:40:34;0.98;;;0.70;;
49578;SDS011;35483;50.828;3.228;2023-04-28T10:43:01;0.70;;;0.70;;
49578;SDS011;35483;50.828;3.228;2023-04-28T10:48:15;0.63;;;0.63;;
49578;SDS011;35483;50.828;3.228;2023-04-28T10:56:07;0.85;;;0.60;;
49578;SDS011;35483;50.828;3.228;2023-04-28T10:58:33;0.88;;;0.88;;
49578;SDS011;35483;50.828;3.228;2023-04-28T11:06:35;0.90;;;0.90;;
49578;SDS011;35483;50.828;3.228;2023-04-28T11:14:35;1.75;;;1.02;;
49578;SDS011;35483;50.828;3.228;2023-04-28T11:17:05;0.98;;;0.90;;
49578;SDS011;35483;50.828;3.228;2023-04-28T11:22:03;0.93;;;0.93;;
49578;SDS011;35483;50.828;3.228;2023-04-28T11:24:36;1.15;;;0.88;;
49578;SDS011;35483;50.828;3.228;2023-04-28T11:27:02;0.60;;;0.60;;
49578;SDS011;35483;50.828;3.228;2023-04-28T11:29:35;1.30;;;0.90;;
49578;SDS011;35483;50.828;3.228;2023-04-28T11:32:03;1.73;;;0.97;;
49578;SDS011;35483;50.828;3.228;2023-04-28T11:34:29;1.08;;;1.08;;
49578;SDS011;35483;50.828;3.228;2023-04-28T11:36:55;1.17;;;1.10;;
49578;SDS011;35483;50.828;3.228;2023-04-28T11:39:31;1.27;;;1.17;;
49578;SDS011;35483;50.828;3.228;2023-04-28T11:41:58;1.20;;;1.10;;
49578;SDS011;35483;50.828;3.228;2023-04-28T11:44:33;1.20;;;1.10;;
49578;SDS011;35483;50.828;3.228;2023-04-28T11:47:00;1.50;;;1.40;;
49578;SDS011;35483;50.828;3.228;2023-04-28T11:49:30;0.88;;;0.88;;
49578;SDS011;35483;50.828;3.228;2023-04-28T11:52:05;1.25;;;1.10;;
49578;SDS011;35483;50.828;3.228;2023-04-28T11:54:32;1.98;;;1.35;;
49578;SDS011;35483;50.828;3.228;2023-04-28T11:56:59;1.52;;;1.00;;
49578;SDS011;35483;50.828;3.228;2023-04-28T11:59:28;2.35;;;1.38;;
49578;SDS011;35483;50.828;3.228;2023-04-28T12:01:59;1.05;;;1.02;;
49578;SDS011;35483;50.828;3.228;2023-04-28T12:04:36;1.23;;;1.05;;
49578;SDS011;35483;50.828;3.228;2023-04-28T12:09:39;1.02;;;0.93;;
49578;SDS011;35483;50.828;3.228;2023-04-28T12:12:07;0.90;;;0.90;;
49578;SDS011;35483;50.828;3.228;2023-04-28T12:17:25;1.20;;;1.10;;
49578;SDS011;35483;50.828;3.228;2023-04-28T12:19:56;1.02;;;0.90;;
49578;SDS011;35483;50.828;3.228;2023-04-28T12:22:23;0.90;;;0.90;;
49578;SDS011;35483;50.828;3.228;2023-04-28T12:25:05;0.80;;;0.80;;
49578;SDS011;35483;50.828;3.228;2023-04-28T12:27:33;1.20;;;0.90;;
49578;SDS011;35483;50.828;3.228;2023-04-28T12:30:03;0.82;;;0.80;;
49578;SDS011;35483;50.828;3.228;2023-04-28T12:32:49;0.75;;;0.73;;
49578;SDS011;35483;50.828;3.228;2023-04-28T12:35:15;1.00;;;0.75;;
49578;SDS011;35483;50.828;3.228;2023-04-28T12:37:41;0.70;;;0.70;;
49578;SDS011;35483;50.828;3.228;2023-04-28T12:40:08;1.40;;;0.80;;
49578;SDS011;35483;50.828;3.228;2023-04-28T12:42:34;0.80;;;0.80;;
49578;SDS011;35483;50.828;3.228;2023-04-28T12:45:00;0.77;;;0.73;;
49578;SDS011;35483;50.828;3.228;2023-04-28T12:47:27;0.90;;;0.88;;
49578;SDS011;35483;50.828;3.228;2023-04-28T12:49:53;1.00;;;0.75;;
49578;SDS011;35483;50.828;3.228;2023-04-28T12:52:19;1.08;;;0.73;;
49578;SDS011;35483;50.828;3.228;2023-04-28T12:54:45;0.50;;;0.50;;
49578;SDS011;35483;50.828;3.228;2023-04-28T12:57:20;0.50;;;0.50;;
49578;SDS011;35483;50.828;3.228;2023-04-28T12:59:46;0.95;;;0.68;;
49578;SDS011;35483;50.828;3.228;2023-04-28T13:02:12;0.40;;;0.40;;
49578;SDS011;35483;50.828;3.228;2023-04-28T13:04:39;0.45;;;0.40;;
49578;SDS011;35483;50.828;3.228;2023-04-28T13:07:10;0.35;;;0.35;;
49578;SDS011;35483;50.828;3.228;2023-04-28T13:09:37;0.20;;;0.20;;
49578;SDS011;35483;50.828;3.228;2023-04-28T13:12:02;0.40;;;0.40;;
49578;SDS011;35483;50.828;3.228;2023-04-28T13:14:28;0.55;;;0.55;;
49578;SDS011;35483;50.828;3.228;2023-04-28T13:16:55;0.60;;;0.50;;
49578;SDS011;35483;50.828;3.228;2023-04-28T13:19:22;0.57;;;0.57;;
49578;SDS011;35483;50.828;3.228;2023-04-28T13:21:48;0.63;;;0.52;;
49578;SDS011;35483;50.828;3.228;2023-04-28T13:24:14;0.63;;;0.60;;
49578;SDS011;35483;50.828;3.228;2023-04-28T13:26:40;0.60;;;0.60;;
49578;SDS011;35483;50.828;3.228;2023-04-28T13:29:08;1.00;;;0.90;;
49578;SDS011;35483;50.828;3.228;2023-04-28T13:31:34;1.02;;;1.02;;
49578;SDS011;35483;50.828;3.228;2023-04-28T13:34:00;0.93;;;0.93;;
49578;SDS011;35483;50.828;3.228;2023-04-28T13:36:28;0.80;;;0.80;;
49578;SDS011;35483;50.828;3.228;2023-04-28T13:38:54;0.65;;;0.65;;
49578;SDS011;35483;50.828;3.228;2023-04-28T13:41:20;0.77;;;0.77;;
49578;SDS011;35483;50.828;3.228;2023-04-28T13:43:46;1.02;;;0.90;;
49578;SDS011;35483;50.828;3.228;2023-04-28T13:46:12;1.13;;;1.05;;
49578;SDS011;35483;50.828;3.228;2023-04-28T13:48:38;0.98;;;0.88;;
49578;SDS011;35483;50.828;3.228;2023-04-28T13:51:05;1.13;;;0.98;;
49578;SDS011;35483;50.828;3.228;2023-04-28T13:53:31;1.25;;;1.10;;
49578;SDS011;35483;50.828;3.228;2023-04-28T13:55:58;1.00;;;0.77;;
49578;SDS011;35483;50.828;3.228;2023-04-28T13:58:26;1.00;;;0.85;;
49578;SDS011;35483;50.828;3.228;2023-04-28T14:00:53;1.35;;;1.00;;
49578;SDS011;35483;50.828;3.228;2023-04-28T14:03:19;0.80;;;0.80;;
49578;SDS011;35483;50.828;3.228;2023-04-28T14:05:47;0.90;;;0.90;;
49578;SDS011;35483;50.828;3.228;2023-04-28T14:08:14;1.88;;;1.05;;
49578;SDS011;35483;50.828;3.228;2023-04-28T14:10:40;0.57;;;0.57;;
49578;SDS011;35483;50.828;3.228;2023-04-28T14:13:06;0.80;;;0.80;;
49578;SDS011;35483;50.828;3.228;2023-04-28T14:15:32;1.85;;;0.80;;
49578;SDS011;35483;50.828;3.228;2023-04-28T14:17:58;0.80;;;0.77;;
49578;SDS011;35483;50.828;3.228;2023-04-28T14:20:23;0.63;;;0.60;;
49578;SDS011;35483;50.828;3.228;2023-04-28T14:22:49;1.67;;;0.60;;
49578;SDS011;35483;50.828;3.228;2023-04-28T14:25:15;0.90;;;0.77;;
49578;SDS011;35483;50.828;3.228;2023-04-28T14:27:42;0.82;;;0.60;;
49578;SDS011;35483;50.828;3.228;2023-04-28T14:30:09;0.70;;;0.70;;
49578;SDS011;35483;50.828;3.228;2023-04-28T14:32:35;0.70;;;0.70;;
49578;SDS011;35483;50.828;3.228;2023-04-28T14:35:02;0.90;;;0.90;;
49578;SDS011;35483;50.828;3.228;2023-04-28T14:37:30;0.80;;;0.80;;
49578;SDS011;35483;50.828;3.228;2023-04-28T14:39:57;1.00;;;0.90;;
49578;SDS011;35483;50.828;3.228;2023-04-28T14:42:27;0.80;;;0.80;;
49578;SDS011;35483;50.828;3.228;2023-04-28T14:44:57;0.73;;;0.60;;
49578;SDS011;35483;50.828;3.228;2023-04-28T14:47:24;0.50;;;0.50;;
49578;SDS011;35483;50.828;3.228;2023-04-28T14:49:52;1.52;;;0.90;;
49578;SDS011;35483;50.828;3.228;2023-04-28T14:52:21;0.80;;;0.80;;
49578;SDS011;35483;50.828;3.228;2023-04-28T14:54:47;1.90;;;0.80;;
49578;SDS011;35483;50.828;3.228;2023-04-28T14:57:13;4.00;;;0.77;;
49578;SDS011;35483;50.828;3.228;2023-04-28T14:59:40;1.20;;;1.00;;
49578;SDS011;35483;50.828;3.228;2023-04-28T15:02:07;0.95;;;0.82;;
49578;SDS011;35483;50.828;3.228;2023-04-28T15:04:33;0.75;;;0.75;;
49578;SDS011;35483;50.828;3.228;2023-04-28T15:06:59;1.38;;;1.02;;
49578;SDS011;35483;50.828;3.228;2023-04-28T15:09:26;1.30;;;1.20;;
49578;SDS011;35483;50.828;3.228;2023-04-28T15:11:52;2.58;;;1.20;;
49578;SDS011;35483;50.828;3.228;2023-04-28T15:14:18;1.55;;;1.10;;
49578;SDS011;35483;50.828;3.228;2023-04-28T15:16:44;1.90;;;1.70;;
49578;SDS011;35483;50.828;3.228;2023-04-28T15:19:11;2.15;;;1.80;;
49578;SDS011;35483;50.828;3.228;2023-04-28T15:21:37;2.40;;;1.77;;
49578;SDS011;35483;50.828;3.228;2023-04-28T15:24:03;2.30;;;2.10;;
49578;SDS011;35483;50.828;3.228;2023-04-28T15:26:29;3.05;;;2.58;;